Time;durP1;ratioP1;P1;durP2;ratioP2;P2;SDS_P1;SDS_P2;PMS_P1;PMS_P2;Temp;Humidity;BMP_temperature;BMP_pressure;BME280_temperature;BME280_humidity;BME280_pressure;Samples;Min_cycle;Max_cycle;Signal;HPM_P1;HPM_P2
2023/05/04 00:00:55;;;;;;;;;;;;;;;7.67;100.00;96199.94;10534170;28;2021;-76
2023/05/04 00:05:57;;;;;;;;;;;;;;;7.51;100.00;96196.22;10529203;28;1982;-76
2023/05/04 00:11:00;;;;;;;;;;;;;;;7.41;100.00;96202.19;10519577;28;1918;-75
2023/05/04 00:16:02;;;;;;;;;;;;;;;7.44;100.00;96193.69;10515665;28;2072;-75
2023/05/04 00:21:05;;;;;;;;;;;;;;;7.34;100.00;96195.41;10522342;28;1861;-75
2023/05/04 00:26:07;;;;;;;;;;;;;;;7.42;100.00;96187.78;10537188;28;2015;-75
2023/05/04 00:31:10;;;;;;;;;;;;;;;7.35;100.00;96176.44;10530591;28;2116;-75
2023/05/04 00:36:13;;;;;;;;;;;;;;;7.28;100.00;96178.47;10534668;28;1976;-75
2023/05/04 00:41:16;;;;;;;;;;;;;;;7.25;100.00;96177.09;10538009;28;2232;-75
2023/05/04 00:46:18;;;;;;;;;;;;;;;7.23;100.00;96173.81;10536731;28;2312;-77
2023/05/04 00:51:21;;;;;;;;;;;;;;;7.21;100.00;96175.13;10531723;28;4888;-77
2023/05/04 00:56:23;;;;;;;;;;;;;;;7.08;100.00;96173.59;10537162;28;2210;-75
2023/05/04 01:01:25;;;;;;;;;;;;;;;6.99;100.00;96178.50;10536352;28;2128;-78
2023/05/04 01:06:28;;;;;;;;;;;;;;;7.01;100.00;96172.94;10535467;28;1985;-75
2023/05/04 01:11:30;;;;;;;;;;;;;;;6.93;100.00;96182.13;10535358;28;2137;-75
2023/05/04 01:16:33;;;;;;;;;;;;;;;6.88;100.00;96179.38;10527021;28;2263;-75
2023/05/04 01:21:35;;;;;;;;;;;;;;;6.80;100.00;96174.41;10532885;28;1982;-76
2023/05/04 01:26:38;;;;;;;;;;;;;;;6.74;100.00;96175.38;10538243;28;1935;-76
2023/05/04 01:31:40;;;;;;;;;;;;;;;6.73;100.00;96176.41;10543499;28;1958;-76
2023/05/04 01:36:42;;;;;;;;;;;;;;;6.72;100.00;96174.81;10533648;28;1966;-75
2023/05/04 01:41:45;;;;;;;;;;;;;;;6.63;100.00;96165.56;10533836;28;1986;-78
2023/05/04 01:46:47;;;;;;;;;;;;;;;6.62;100.00;96172.78;10539601;28;2280;-76
2023/05/04 01:51:49;;;;;;;;;;;;;;;6.64;100.00;96172.53;10533155;28;4927;-77
2023/05/04 01:56:52;;;;;;;;;;;;;;;6.56;100.00;96167.56;10538915;28;2171;-77
2023/05/04 02:01:54;;;;;;;;;;;;;;;6.55;100.00;96171.25;10533562;28;2006;-76
2023/05/04 02:06:57;;;;;;;;;;;;;;;6.59;100.00;96165.22;10528371;28;2092;-77
2023/05/04 02:11:59;;;;;;;;;;;;;;;6.50;100.00;96164.78;10528750;28;2118;-78
2023/05/04 02:17:02;;;;;;;;;;;;;;;6.47;100.00;96167.94;10536344;28;2007;-77
2023/05/04 02:22:04;;;;;;;;;;;;;;;6.44;100.00;96170.28;10561409;27;2087;-77
2023/05/04 02:27:06;;;;;;;;;;;;;;;6.38;100.00;96174.72;10523789;28;2220;-76
2023/05/04 02:32:09;;;;;;;;;;;;;;;6.31;100.00;96171.38;10523305;28;2255;-76
2023/05/04 02:37:11;;;;;;;;;;;;;;;6.33;100.00;96163.91;10536363;28;1985;-76
2023/05/04 02:42:15;;;;;;;;;;;;;;;6.31;100.00;96166.03;10528785;28;1967;-76
2023/05/04 02:47:17;;;;;;;;;;;;;;;6.35;100.00;96161.81;10531578;28;2023;-75
2023/05/04 02:52:19;;;;;;;;;;;;;;;6.30;100.00;96166.25;10533440;28;5042;-76
2023/05/04 02:57:22;;;;;;;;;;;;;;;6.33;100.00;96168.44;10523698;28;1986;-75
2023/05/04 03:02:24;;;;;;;;;;;;;;;6.24;100.00;96165.34;10534339;28;2161;-77
2023/05/04 03:07:27;;;;;;;;;;;;;;;6.17;100.00;96173.50;10527188;28;2237;-75
2023/05/04 03:12:29;;;;;;;;;;;;;;;6.15;100.00;96172.09;10533389;28;2307;-75
2023/05/04 03:17:32;;;;;;;;;;;;;;;6.08;100.00;96166.88;10531917;28;2113;-77
2023/05/04 03:22:34;;;;;;;;;;;;;;;6.10;100.00;96169.31;10534929;28;1918;-77
2023/05/04 03:27:37;;;;;;;;;;;;;;;6.02;100.00;96169.69;10530020;28;2051;-75
2023/05/04 03:32:39;;;;;;;;;;;;;;;5.94;100.00;96165.53;10523832;28;8288;-77
2023/05/04 03:37:41;;;;;;;;;;;;;;;5.95;100.00;96167.94;10524152;28;8435;-75
2023/05/04 03:42:44;;;;;;;;;;;;;;;5.97;100.00;96171.19;10532681;28;8212;-75
2023/05/04 03:47:46;;;;;;;;;;;;;;;5.99;100.00;96162.16;10541023;27;1988;-75
2023/05/04 03:52:49;;;;;;;;;;;;;;;5.93;100.00;96162.03;10531180;28;8438;-76
2023/05/04 03:57:51;;;;;;;;;;;;;;;5.91;100.00;96158.78;10521610;28;2015;-75
2023/05/04 04:02:53;;;;;;;;;;;;;;;5.96;100.00;96158.09;10529015;28;2065;-76
2023/05/04 04:07:56;;;;;;;;;;;;;;;5.97;100.00;96163.19;10532902;28;8358;-76
2023/05/04 04:12:58;;;;;;;;;;;;;;;6.10;100.00;96158.63;10529464;28;2118;-75
2023/05/04 04:18:01;;;;;;;;;;;;;;;6.20;100.00;96166.88;10531984;28;2121;-75
2023/05/04 04:23:03;;;;;;;;;;;;;;;6.38;100.00;96158.69;10532075;28;1966;-76
2023/05/04 04:28:06;;;;;;;;;;;;;;;6.57;100.00;96147.81;10529290;28;2015;-77
2023/05/04 04:33:08;;;;;;;;;;;;;;;6.67;100.00;96154.13;10531158;28;2267;-77
2023/05/04 04:38:11;;;;;;;;;;;;;;;6.80;100.00;96147.69;10538611;28;2132;-77
2023/05/04 04:43:13;;;;;;;;;;;;;;;7.12;100.00;96150.63;10539379;28;8198;-77
2023/05/04 04:48:17;;;;;;;;;;;;;;;7.45;100.00;96149.84;10537107;28;2279;-76
2023/05/04 04:53:19;;;;;;;;;;;;;;;7.92;100.00;96149.44;10530431;28;1931;-76
2023/05/04 04:58:22;;;;;;;;;;;;;;;8.14;100.00;96136.06;10530722;28;1938;-76
2023/05/04 05:03:24;;;;;;;;;;;;;;;8.59;100.00;96138.50;10537205;28;1989;-76
2023/05/04 05:08:27;;;;;;;;;;;;;;;8.71;100.00;96145.56;10530201;28;2062;-76
2023/05/04 05:13:29;;;;;;;;;;;;;;;9.44;100.00;96136.84;10540623;28;1978;-76
2023/05/04 05:18:32;;;;;;;;;;;;;;;9.71;100.00;96136.75;10530765;28;2049;-77
2023/05/04 05:23:35;;;;;;;;;;;;;;;9.65;100.00;96134.31;10540538;28;1983;-76
2023/05/04 05:28:37;;;;;;;;;;;;;;;9.68;100.00;96134.63;10538733;28;2156;-76
2023/05/04 05:33:40;;;;;;;;;;;;;;;9.88;100.00;96138.50;10544239;28;2048;-76
2023/05/04 05:38:43;;;;;;;;;;;;;;;9.87;100.00;96135.00;10535497;28;2785;-76
2023/05/04 05:43:46;;;;;;;;;;;;;;;10.37;100.00;96130.97;10533295;28;5714;-76
2023/05/04 05:48:49;;;;;;;;;;;;;;;10.39;100.00;96136.06;10534487;28;2173;-76
2023/05/04 05:53:51;;;;;;;;;;;;;;;10.50;100.00;96135.84;10530494;28;2195;-76
2023/05/04 05:58:54;;;;;;;;;;;;;;;9.90;100.00;96147.09;10530155;28;1926;-76
2023/05/04 06:03:57;;;;;;;;;;;;;;;10.10;100.00;96136.44;10538365;28;1966;-77
2023/05/04 06:09:00;;;;;;;;;;;;;;;10.25;100.00;96139.25;10532943;28;2216;-77
2023/05/04 06:14:03;;;;;;;;;;;;;;;9.90;100.00;96136.34;10531564;28;1922;-77
2023/05/04 06:19:06;;;;;;;;;;;;;;;10.07;100.00;96139.66;10529083;28;1994;-76
2023/05/04 06:24:09;;;;;;;;;;;;;;;10.38;100.00;96137.16;10534699;28;2267;-77
2023/05/04 06:29:11;;;;;;;;;;;;;;;10.21;100.00;96137.31;10533612;28;2287;-77
2023/05/04 06:34:13;;;;;;;;;;;;;;;10.07;100.00;96128.91;10530629;28;2223;-77
2023/05/04 06:39:16;;;;;;;;;;;;;;;10.54;100.00;96115.41;10524083;28;1954;-77
2023/05/04 06:44:18;;;;;;;;;;;;;;;10.86;100.00;96116.28;10530507;28;5666;-76
2023/05/04 06:49:21;;;;;;;;;;;;;;;10.91;100.00;96111.72;10527501;28;2209;-76
2023/05/04 06:54:24;;;;;;;;;;;;;;;11.62;100.00;96108.22;10533707;28;1919;-76
2023/05/04 06:59:27;;;;;;;;;;;;;;;11.99;100.00;96102.50;10557575;27;2065;-77
2023/05/04 07:04:30;;;;;;;;;;;;;;;12.17;100.00;96106.50;10528756;28;1973;-77
2023/05/04 07:09:32;;;;;;;;;;;;;;;12.10;100.00;96098.72;10535463;28;2211;-77
2023/05/04 07:14:35;;;;;;;;;;;;;;;12.36;100.00;96099.41;10532602;28;1969;-77
2023/05/04 07:19:38;;;;;;;;;;;;;;;12.56;100.00;96095.00;10566117;27;2044;-76
2023/05/04 07:24:40;;;;;;;;;;;;;;;12.41;100.00;96104.00;10522020;28;2117;-76
2023/05/04 07:29:43;;;;;;;;;;;;;;;13.22;100.00;96095.38;10531004;28;1998;-77
2023/05/04 07:34:46;;;;;;;;;;;;;;;13.65;100.00;96089.34;10525313;28;2169;-76
2023/05/04 07:39:49;;;;;;;;;;;;;;;13.71;100.00;96099.03;10532010;28;5676;-77
2023/05/04 07:44:51;;;;;;;;;;;;;;;13.98;100.00;96088.47;10530068;28;1986;-75
2023/05/04 07:49:53;;;;;;;;;;;;;;;14.30;100.00;96090.50;10533048;28;2015;-78
2023/05/04 07:54:56;;;;;;;;;;;;;;;14.33;100.00;96095.34;10525653;28;1999;-77
2023/05/04 07:59:59;;;;;;;;;;;;;;;14.37;100.00;96087.47;10536453;28;2009;-75
2023/05/04 08:05:02;;;;;;;;;;;;;;;14.44;100.00;96079.81;10533199;28;1946;-77
2023/05/04 08:10:05;;;;;;;;;;;;;;;14.86;100.00;96081.69;10535517;28;1957;-77
2023/05/04 08:15:09;;;;;;;;;;;;;;;14.58;100.00;96074.53;10525403;28;1875;-75
2023/05/04 08:20:12;;;;;;;;;;;;;;;14.32;100.00;96076.72;10525673;28;2205;-78
2023/05/04 08:25:14;;;;;;;;;;;;;;;14.73;100.00;96077.00;10526809;28;2133;-77
2023/05/04 08:30:17;;;;;;;;;;;;;;;14.49;100.00;96076.25;10531093;28;2081;-77
2023/05/04 08:35:19;;;;;;;;;;;;;;;14.88;100.00;96074.06;10524368;28;2204;-76
2023/05/04 08:40:22;;;;;;;;;;;;;;;14.53;100.00;96075.38;10526427;28;5506;-76
2023/05/04 08:45:25;;;;;;;;;;;;;;;15.15;100.00;96069.91;10523443;28;2133;-77
2023/05/04 08:50:28;;;;;;;;;;;;;;;15.20;100.00;96074.41;10540303;28;2175;-76
2023/05/04 08:55:31;;;;;;;;;;;;;;;15.07;100.00;96065.13;10534275;28;2070;-77
2023/05/04 09:00:35;;;;;;;;;;;;;;;15.48;100.00;96067.19;10532584;28;2153;-75
2023/05/04 09:05:38;;;;;;;;;;;;;;;15.54;100.00;96061.38;10537011;28;2171;-77
2023/05/04 09:10:41;;;;;;;;;;;;;;;15.94;100.00;96051.72;10543612;28;2027;-76
2023/05/04 09:15:43;;;;;;;;;;;;;;;15.82;100.00;96058.72;10536686;28;1993;-74
2023/05/04 09:20:46;;;;;;;;;;;;;;;15.90;93.72;96055.31;10540212;28;2027;-77
2023/05/04 09:25:49;;;;;;;;;;;;;;;15.41;100.00;96062.16;10536732;28;2307;-78
2023/05/04 09:30:51;;;;;;;;;;;;;;;15.75;100.00;96047.50;10533280;28;2087;-77
2023/05/04 09:35:54;;;;;;;;;;;;;;;15.62;100.00;96043.66;10534596;28;1973;-76
2023/05/04 09:40:57;;;;;;;;;;;;;;;15.81;100.00;96040.88;10531893;28;5657;-76
2023/05/04 09:46:00;;;;;;;;;;;;;;;16.06;100.00;96036.88;10538914;28;1913;-78
2023/05/04 09:51:05;;;;;;;;;;;;;;;16.02;100.00;96036.66;10525726;28;2102;-78
2023/05/04 09:56:08;;;;;;;;;;;;;;;16.12;100.00;96035.66;10538325;28;2022;-77
2023/05/04 10:01:11;;;;;;;;;;;;;;;15.97;97.28;96028.63;10546005;28;1990;-77
2023/05/04 10:06:13;;;;;;;;;;;;;;;16.46;95.53;96018.91;10533125;28;2216;-77
2023/05/04 10:11:17;;;;;;;;;;;;;;;16.23;97.04;96014.56;10527849;28;1961;-77
2023/05/04 10:16:22;;;;;;;;;;;;;;;16.37;96.65;96012.63;10533854;28;2058;-75
2023/05/04 10:21:25;;;;;;;;;;;;;;;16.42;96.28;96012.53;10536447;28;2155;-77
2023/05/04 10:26:28;;;;;;;;;;;;;;;16.43;94.78;96011.41;10525912;28;2008;-76
2023/05/04 10:31:31;;;;;;;;;;;;;;;16.99;89.12;96010.16;10527377;28;2272;-77
2023/05/04 10:36:34;;;;;;;;;;;;;;;16.70;89.18;96008.63;10539361;28;1972;-78
2023/05/04 10:41:36;;;;;;;;;;;;;;;16.81;90.51;95994.84;10536821;28;5669;-78
2023/05/04 10:46:39;;;;;;;;;;;;;;;16.79;94.87;96005.19;10534306;28;2112;-77
2023/05/04 10:51:42;;;;;;;;;;;;;;;16.60;94.78;95997.97;10551212;27;1663;-77
2023/05/04 10:56:51;;;;;;;;;;;;;;;16.90;89.51;95987.56;10525905;28;1490;-77
2023/05/04 11:01:53;;;;;;;;;;;;;;;17.67;84.56;96003.50;10524012;28;2070;-77
2023/05/04 11:06:56;;;;;;;;;;;;;;;17.93;80.81;95994.69;10539552;28;1993;-77
2023/05/04 11:11:59;;;;;;;;;;;;;;;17.32;89.21;95980.00;10538058;28;1978;-76
2023/05/04 11:17:02;;;;;;;;;;;;;;;16.90;88.73;95973.97;10531230;28;1978;-77
2023/05/04 11:22:13;;;;;;;;;;;;;;;16.86;87.86;95970.25;10524961;28;2042;-77
2023/05/04 11:27:16;;;;;;;;;;;;;;;17.15;84.77;95969.81;10527022;28;2204;-78
2023/05/04 11:32:18;;;;;;;;;;;;;;;17.36;82.54;95970.09;10524170;28;2031;-76
2023/05/04 11:37:22;;;;;;;;;;;;;;;17.25;84.96;95954.09;10541574;28;2117;-76
2023/05/04 11:42:24;;;;;;;;;;;;;;;17.19;87.85;95949.09;10532880;28;5550;-78
2023/05/04 11:47:27;;;;;;;;;;;;;;;17.52;88.55;95946.84;10539456;28;2017;-77
2023/05/04 11:52:32;;;;;;;;;;;;;;;17.46;88.93;95934.50;10518319;28;2091;-76
2023/05/04 11:57:36;;;;;;;;;;;;;;;17.65;88.41;95948.66;10525369;28;1955;-77
2023/05/04 12:02:38;;;;;;;;;;;;;;;17.48;90.79;95930.34;10541686;28;2092;-77
2023/05/04 12:07:41;;;;;;;;;;;;;;;17.72;79.74;95918.31;10530277;28;1975;-77
2023/05/04 12:12:43;;;;;;;;;;;;;;;18.07;82.44;95914.59;10529985;28;2160;-77
2023/05/04 12:17:45;;;;;;;;;;;;;;;18.25;75.45;95901.78;10534781;28;2180;-77
2023/05/04 12:22:48;;;;;;;;;;;;;;;18.08;71.96;95907.22;10552395;28;1911;-77
2023/05/04 12:27:51;;;;;;;;;;;;;;;17.95;80.19;95895.34;10516103;28;1977;-79
2023/05/04 12:32:53;;;;;;;;;;;;;;;18.48;81.48;95897.00;10534060;28;1972;-77
2023/05/04 12:37:56;;;;;;;;;;;;;;;18.61;81.50;95889.78;10535680;28;2044;-78
2023/05/04 12:42:58;;;;;;;;;;;;;;;18.97;74.29;95888.63;10540558;28;5294;-78
2023/05/04 12:48:01;;;;;;;;;;;;;;;18.89;73.64;95882.88;10534954;28;1951;-78
2023/05/04 12:53:03;;;;;;;;;;;;;;;19.37;69.21;95875.50;10538823;28;2156;-75
2023/05/04 12:58:06;;;;;;;;;;;;;;;19.61;61.23;95878.50;10550313;28;2388;-77
2023/05/04 13:03:11;;;;;;;;;;;;;;;19.75;60.29;95872.78;10543795;28;1966;-75
2023/05/04 13:08:14;;;;;;;;;;;;;;;19.54;58.43;95867.25;10546356;28;1975;-76
2023/05/04 13:13:16;;;;;;;;;;;;;;;19.73;60.10;95864.16;10536807;28;1925;-77
2023/05/04 13:18:19;;;;;;;;;;;;;;;19.20;69.55;95862.75;10542406;28;2439;-78
2023/05/04 13:23:21;;;;;;;;;;;;;;;19.91;70.99;95856.63;10544440;28;2047;-77
2023/05/04 13:28:24;;;;;;;;;;;;;;;20.01;64.07;95853.53;10542402;28;1980;-76
2023/05/04 13:33:27;;;;;;;;;;;;;;;19.68;66.23;95842.50;10534108;28;2208;-75
2023/05/04 13:38:32;;;;;;;;;;;;;;;19.73;64.25;95842.34;10536988;28;1989;-77
2023/05/04 13:43:34;;;;;;;;;;;;;;;20.14;63.10;95829.84;10530742;28;5595;-76
2023/05/04 13:48:37;;;;;;;;;;;;;;;20.42;58.31;95825.44;10528401;28;1966;-77
2023/05/04 13:53:39;;;;;;;;;;;;;;;20.27;62.13;95820.56;10529776;28;1903;-76
2023/05/04 13:58:42;;;;;;;;;;;;;;;19.64;64.61;95812.38;10523918;28;2290;-77
2023/05/04 14:03:44;;;;;;;;;;;;;;;19.83;64.64;95808.41;10527459;28;1975;-76
2023/05/04 14:08:47;;;;;;;;;;;;;;;19.38;64.08;95804.31;10527108;28;1959;-76
2023/05/04 14:13:50;;;;;;;;;;;;;;;19.37;64.40;95802.72;10527766;28;2007;-76
2023/05/04 14:18:52;;;;;;;;;;;;;;;19.69;61.82;95798.53;10530575;28;1979;-77
2023/05/04 14:23:55;;;;;;;;;;;;;;;19.72;63.34;95783.44;10554919;27;2028;-77
2023/05/04 14:28:57;;;;;;;;;;;;;;;19.82;62.30;95791.25;10528893;28;1986;-76
2023/05/04 14:33:59;;;;;;;;;;;;;;;19.57;62.66;95784.00;10530937;28;2088;-76
2023/05/04 14:39:02;;;;;;;;;;;;;;;19.31;61.91;95784.94;10533740;28;2012;-76
2023/05/04 14:44:05;;;;;;;;;;;;;;;19.36;61.23;95784.78;10517062;28;5657;-75
2023/05/04 14:49:07;;;;;;;;;;;;;;;19.44;59.71;95783.91;10535587;28;1973;-75
2023/05/04 14:54:10;;;;;;;;;;;;;;;19.57;60.22;95778.56;10542999;28;2131;-75
2023/05/04 14:59:12;;;;;;;;;;;;;;;19.79;59.22;95780.22;10536476;28;2175;-75
2023/05/04 15:04:15;;;;;;;;;;;;;;;19.81;58.08;95778.72;10534829;28;1978;-73
2023/05/04 15:09:18;;;;;;;;;;;;;;;19.44;57.95;95791.28;10532305;28;2275;-74
2023/05/04 15:14:20;;;;;;;;;;;;;;;19.59;57.26;95781.75;10533806;28;1976;-74
2023/05/04 15:19:23;;;;;;;;;;;;;;;19.54;56.40;95773.78;10525432;28;1974;-75
2023/05/04 15:24:25;;;;;;;;;;;;;;;19.51;55.21;95777.16;10529101;28;1982;-72
2023/05/04 15:29:27;;;;;;;;;;;;;;;19.61;55.36;95768.63;10530191;28;2243;-75
2023/05/04 15:34:30;;;;;;;;;;;;;;;19.30;56.17;95767.00;10529161;28;2231;-75
2023/05/04 15:39:32;;;;;;;;;;;;;;;19.42;56.76;95767.09;10524765;28;1927;-74
2023/05/04 15:44:35;;;;;;;;;;;;;;;19.55;55.75;95753.56;10531433;28;5572;-73
2023/05/04 15:49:37;;;;;;;;;;;;;;;19.78;55.45;95763.03;10532522;28;1997;-72
2023/05/04 15:54:40;;;;;;;;;;;;;;;19.58;55.16;95764.59;10537338;28;1973;-72
2023/05/04 15:59:42;;;;;;;;;;;;;;;19.48;55.93;95761.47;10539974;28;1984;-73
2023/05/04 16:04:45;;;;;;;;;;;;;;;19.10;55.67;95767.75;10531916;28;2094;-73
2023/05/04 16:09:48;;;;;;;;;;;;;;;19.43;56.41;95760.50;10538657;28;1974;-72
2023/05/04 16:14:51;;;;;;;;;;;;;;;19.09;56.57;95763.44;10547093;28;2080;-74
2023/05/04 16:19:54;;;;;;;;;;;;;;;19.18;55.95;95751.34;10544111;28;1958;-72
2023/05/04 16:24:56;;;;;;;;;;;;;;;19.02;57.10;95746.78;10540547;28;1978;-74
2023/05/04 16:29:59;;;;;;;;;;;;;;;18.81;56.97;95752.16;10537497;28;2033;-73
2023/05/04 16:35:02;;;;;;;;;;;;;;;19.13;56.43;95737.13;10541112;28;1906;-73
2023/05/04 16:40:04;;;;;;;;;;;;;;;18.75;56.43;95731.69;10537636;28;5542;-74
2023/05/04 16:45:07;;;;;;;;;;;;;;;18.67;56.51;95743.41;10537405;28;1936;-75
2023/05/04 16:50:10;;;;;;;;;;;;;;;18.48;56.98;95746.50;10542738;28;1967;-73
2023/05/04 16:55:13;;;;;;;;;;;;;;;18.37;57.80;95744.09;10542059;28;1937;-71
2023/05/04 17:00:15;;;;;;;;;;;;;;;18.18;58.75;95734.69;10539109;28;2147;-73
2023/05/04 17:05:18;;;;;;;;;;;;;;;18.18;59.77;95740.13;10543146;28;1986;-73
2023/05/04 17:10:20;;;;;;;;;;;;;;;17.92;59.42;95732.81;10539314;28;1992;-71
2023/05/04 17:15:23;;;;;;;;;;;;;;;17.83;59.88;95729.31;10537057;28;1789;-75
2023/05/04 17:20:29;;;;;;;;;;;;;;;17.66;61.68;95729.28;10544011;28;1896;-74
2023/05/04 17:25:32;;;;;;;;;;;;;;;17.48;62.58;95731.19;10532410;28;1946;-73
2023/05/04 17:30:36;;;;;;;;;;;;;;;17.38;63.52;95728.78;10527360;28;1988;-74
2023/05/04 17:35:38;;;;;;;;;;;;;;;17.24;65.70;95728.91;10540799;28;1927;-75
2023/05/04 17:40:41;;;;;;;;;;;;;;;17.06;67.46;95732.72;10543414;28;5673;-73
2023/05/04 17:45:43;;;;;;;;;;;;;;;16.91;71.18;95748.31;10546645;28;2113;-76
2023/05/04 17:50:46;;;;;;;;;;;;;;;16.68;74.00;95736.72;10552016;28;1975;-75
2023/05/04 17:55:49;;;;;;;;;;;;;;;16.54;78.16;95744.16;10549450;28;2165;-75
2023/05/04 18:00:51;;;;;;;;;;;;;;;16.44;81.62;95755.25;10543699;28;1944;-75
2023/05/04 18:05:54;;;;;;;;;;;;;;;16.27;83.14;95753.25;10586048;27;1883;-75
2023/05/04 18:10:57;;;;;;;;;;;;;;;16.17;84.39;95751.59;10547445;28;1910;-76
2023/05/04 18:16:00;;;;;;;;;;;;;;;15.99;84.18;95755.31;10537716;28;1883;-75
2023/05/04 18:21:03;;;;;;;;;;;;;;;15.86;83.44;95756.16;10535386;28;1876;-76
2023/05/04 18:26:05;;;;;;;;;;;;;;;15.71;84.39;95761.91;10546388;28;1856;-76
2023/05/04 18:31:08;;;;;;;;;;;;;;;15.51;86.14;95766.66;10546516;28;1902;-75
2023/05/04 18:36:11;;;;;;;;;;;;;;;15.26;89.02;95778.03;10547547;28;1893;-76
2023/05/04 18:41:13;;;;;;;;;;;;;;;15.19;89.24;95775.75;10547049;28;5600;-75
2023/05/04 18:46:16;;;;;;;;;;;;;;;14.99;91.65;95785.09;10547423;28;1832;-76
2023/05/04 18:51:18;;;;;;;;;;;;;;;14.94;91.86;95784.38;10544137;28;2066;-76
2023/05/04 18:56:21;;;;;;;;;;;;;;;14.83;92.29;95783.78;10527039;28;1667;-74
2023/05/04 19:01:25;;;;;;;;;;;;;;;14.70;93.97;95790.00;10533249;28;1777;-76
2023/05/04 19:06:27;;;;;;;;;;;;;;;14.59;93.99;95803.69;10526357;28;1839;-76
2023/05/04 19:11:30;;;;;;;;;;;;;;;14.52;93.68;95810.59;10535631;28;2178;-74
2023/05/04 19:16:33;;;;;;;;;;;;;;;14.27;95.25;95815.31;10540584;28;2027;-75
2023/05/04 19:21:36;;;;;;;;;;;;;;;14.25;94.76;95811.28;10542892;28;1864;-77
2023/05/04 19:26:40;;;;;;;;;;;;;;;14.19;93.81;95815.19;10529650;28;1850;-76
2023/05/04 19:31:42;;;;;;;;;;;;;;;14.15;93.71;95811.47;10526317;28;1981;-76
2023/05/04 19:36:45;;;;;;;;;;;;;;;13.99;95.17;95810.88;10529783;28;1851;-77
2023/05/04 19:41:47;;;;;;;;;;;;;;;13.86;96.10;95812.44;10522972;28;5500;-76
2023/05/04 19:46:51;;;;;;;;;;;;;;;13.70;96.70;95814.56;10517682;28;1893;-76
2023/05/04 19:51:53;;;;;;;;;;;;;;;13.67;96.58;95817.03;10525009;28;2103;-76
2023/05/04 19:56:57;;;;;;;;;;;;;;;13.49;97.38;95814.06;10513065;28;1880;-75
2023/05/04 20:01:59;;;;;;;;;;;;;;;13.37;99.75;95810.97;10523874;28;1848;-76
2023/05/04 20:07:02;;;;;;;;;;;;;;;13.33;99.66;95822.63;10515414;28;1867;-78
2023/05/04 20:12:05;;;;;;;;;;;;;;;13.07;100.00;95819.41;10516242;28;1938;-77
2023/05/04 20:17:08;;;;;;;;;;;;;;;13.08;100.00;95821.00;10505637;28;1840;-76
2023/05/04 20:22:10;;;;;;;;;;;;;;;13.09;100.00;95811.81;10507081;28;1880;-76
2023/05/04 20:27:13;;;;;;;;;;;;;;;12.91;100.00;95816.88;10518028;28;1907;-78
2023/05/04 20:32:15;;;;;;;;;;;;;;;12.83;100.00;95819.41;10524307;28;1930;-76
2023/05/04 20:37:18;;;;;;;;;;;;;;;12.66;100.00;95814.44;10525561;28;1888;-74
2023/05/04 20:42:20;;;;;;;;;;;;;;;12.52;100.00;95814.31;10530475;28;5596;-75
2023/05/04 20:47:23;;;;;;;;;;;;;;;12.29;100.00;95810.50;10529434;28;2125;-76
2023/05/04 20:52:26;;;;;;;;;;;;;;;12.27;100.00;95818.03;10535830;28;1983;-75
2023/05/04 20:57:29;;;;;;;;;;;;;;;12.28;100.00;95810.75;10536604;28;1923;-76
2023/05/04 21:02:32;;;;;;;;;;;;;;;12.12;100.00;95810.09;10533243;28;1888;-76
2023/05/04 21:07:35;;;;;;;;;;;;;;;12.10;100.00;95796.13;10535479;28;1872;-75
2023/05/04 21:12:37;;;;;;;;;;;;;;;12.07;100.00;95800.16;10528130;28;2145;-74
2023/05/04 21:17:40;;;;;;;;;;;;;;;12.03;100.00;95809.91;10534274;28;1906;-75
2023/05/04 21:22:43;;;;;;;;;;;;;;;11.94;100.00;95803.50;10531772;28;1914;-75
2023/05/04 21:27:46;;;;;;;;;;;;;;;11.81;100.00;95802.25;10532187;28;2090;-76
2023/05/04 21:32:49;;;;;;;;;;;;;;;11.73;100.00;95793.94;10529074;28;2050;-75
2023/05/04 21:37:52;;;;;;;;;;;;;;;11.67;100.00;95792.38;10536827;28;1836;-77
2023/05/04 21:42:54;;;;;;;;;;;;;;;11.51;100.00;95794.34;10531557;28;5254;-76
2023/05/04 21:47:57;;;;;;;;;;;;;;;11.39;100.00;95792.00;10533451;28;1939;-75
2023/05/04 21:53:00;;;;;;;;;;;;;;;11.33;100.00;95783.16;10539254;28;1933;-76
2023/05/04 21:58:03;;;;;;;;;;;;;;;11.46;100.00;95786.31;10537824;28;2098;-75
2023/05/04 22:03:06;;;;;;;;;;;;;;;11.29;100.00;95784.78;10528701;28;1577;-75
2023/05/04 22:08:10;;;;;;;;;;;;;;;11.19;100.00;95786.72;10526488;28;1450;-75
2023/05/04 22:13:12;;;;;;;;;;;;;;;11.11;100.00;95782.72;10532090;28;1944;-75
2023/05/04 22:18:15;;;;;;;;;;;;;;;11.14;100.00;95778.69;10535874;28;2067;-75
2023/05/04 22:23:18;;;;;;;;;;;;;;;11.06;100.00;95771.97;10532558;28;1867;-75
2023/05/04 22:28:21;;;;;;;;;;;;;;;10.98;100.00;95770.66;10531327;28;2089;-75
2023/05/04 22:33:24;;;;;;;;;;;;;;;10.93;100.00;95768.00;10530652;28;1966;-73
2023/05/04 22:38:27;;;;;;;;;;;;;;;10.82;100.00;95772.63;10559946;27;2142;-77
2023/05/04 22:43:30;;;;;;;;;;;;;;;10.74;100.00;95773.19;10524931;28;1836;-74
2023/05/04 22:48:33;;;;;;;;;;;;;;;10.74;100.00;95781.25;10533473;28;1880;-75
2023/05/04 22:53:36;;;;;;;;;;;;;;;10.73;100.00;95784.22;10535064;28;2112;-75
2023/05/04 22:58:38;;;;;;;;;;;;;;;10.70;100.00;95774.03;10527801;28;1903;-75
2023/05/04 23:03:43;;;;;;;;;;;;;;;10.67;100.00;95785.31;10530478;28;1891;-76
2023/05/04 23:08:46;;;;;;;;;;;;;;;10.62;100.00;95783.44;10529852;28;1896;-78
2023/05/04 23:13:49;;;;;;;;;;;;;;;10.64;100.00;95789.38;10527239;28;1984;-76
2023/05/04 23:18:52;;;;;;;;;;;;;;;10.54;100.00;95794.75;10525800;28;1966;-74
2023/05/04 23:23:56;;;;;;;;;;;;;;;10.51;100.00;95798.00;10529572;28;1889;-75
2023/05/04 23:28:58;;;;;;;;;;;;;;;10.51;100.00;95798.81;10518594;28;2018;-74
2023/05/04 23:34:01;;;;;;;;;;;;;;;10.46;100.00;95795.31;10528875;28;2074;-75
2023/05/04 23:39:04;;;;;;;;;;;;;;;10.31;100.00;95789.94;10527365;28;1925;-75
2023/05/04 23:44:07;;;;;;;;;;;;;;;10.26;100.00;95788.91;10540870;28;5297;-74
2023/05/04 23:49:09;;;;;;;;;;;;;;;10.21;100.00;95782.69;10531042;28;2046;-74
2023/05/04 23:54:12;;;;;;;;;;;;;;;10.12;100.00;95789.69;10527054;28;1921;-76
2023/05/04 23:59:14;;;;;;;;;;;;;;;10.03;100.00;95784.84;10525928;28;1890;-74
